Time;durP1;ratioP1;P1;durP2;ratioP2;P2;SDS_P1;SDS_P2;PMS_P1;PMS_P2;Temp;Humidity;BMP_temperature;BMP_pressure;BME280_temperature;BME280_humidity;BME280_pressure;Samples;Min_cycle;Max_cycle;Signal;HPM_P1;HPM_P2
2022/07/17 00:02:03;;;;;;;10.00;4.00;;;;;;;14.31;100.00;102343.88;5033709;28;20045;-77
2022/07/17 00:04:28;;;;;;;13.48;3.70;;;;;;;14.15;100.00;102344.06;5017575;28;20034;-78
2022/07/17 00:06:54;;;;;;;8.75;3.78;;;;;;;13.92;100.00;102342.00;5026665;28;20034;-77
2022/07/17 00:09:19;;;;;;;13.13;4.13;;;;;;;13.91;100.00;102343.03;5019443;28;20071;-79
2022/07/17 00:11:45;;;;;;;14.95;3.78;;;;;;;13.91;100.00;102348.53;5030022;28;20029;-78
2022/07/17 00:14:10;;;;;;;15.48;4.10;;;;;;;13.78;100.00;102332.84;5032898;28;20056;-78
2022/07/17 00:16:36;;;;;;;13.57;4.10;;;;;;;13.59;100.00;102338.75;5024689;28;20884;-78
2022/07/17 00:19:02;;;;;;;9.70;4.10;;;;;;;13.34;100.00;102349.63;5016184;28;20040;-78
2022/07/17 00:21:27;;;;;;;13.65;4.50;;;;;;;13.29;100.00;102335.28;5003570;28;20144;-78
2022/07/17 00:23:53;;;;;;;16.50;4.90;;;;;;;13.37;100.00;102333.81;5037841;28;20048;-78
2022/07/17 00:26:18;;;;;;;15.75;4.82;;;;;;;13.24;100.00;102336.44;5036971;28;20041;-78
2022/07/17 00:28:44;;;;;;;10.75;5.00;;;;;;;13.21;100.00;102336.66;5045600;28;20036;-77
2022/07/17 00:31:09;;;;;;;15.30;5.13;;;;;;;13.03;100.00;102333.25;5056320;28;20396;-78
2022/07/17 00:33:35;;;;;;;21.98;5.47;;;;;;;13.00;100.00;102333.47;5031352;28;20034;-79
2022/07/17 00:36:01;;;;;;;19.95;6.10;;;;;;;12.96;100.00;102334.66;5036933;28;20038;-78
2022/07/17 00:38:26;;;;;;;11.18;4.97;;;;;;;12.88;100.00;102339.78;5035587;28;20393;-78
2022/07/17 00:40:56;;;;;;;19.08;6.75;;;;;;;12.97;100.00;102341.03;5046134;28;20049;-78
2022/07/17 00:43:23;;;;;;;24.75;7.00;;;;;;;12.98;100.00;102342.81;5037686;28;20037;-78
2022/07/17 00:46:00;;;;;;;28.05;8.30;;;;;;;13.01;100.00;102337.09;5045152;28;20388;-76
2022/07/17 00:48:26;;;;;;;20.95;7.80;;;;;;;13.08;100.00;102337.59;5049394;28;20041;-77
2022/07/17 00:50:52;;;;;;;22.85;7.03;;;;;;;13.08;100.00;102341.22;5054775;28;20089;-78
2022/07/17 00:53:18;;;;;;;22.73;6.85;;;;;;;13.21;100.00;102333.03;5032438;28;20044;-78
2022/07/17 00:55:47;;;;;;;22.77;6.75;;;;;;;13.10;100.00;102338.34;5036503;28;20129;-78
2022/07/17 00:58:19;;;;;;;28.85;7.93;;;;;;;13.16;100.00;102335.22;5016653;28;20041;-77
2022/07/17 01:00:45;;;;;;;19.30;7.47;;;;;;;13.22;100.00;102334.81;5036045;28;20038;-78
2022/07/17 01:03:11;;;;;;;17.88;5.88;;;;;;;13.16;100.00;102332.47;5043870;28;20489;-77
2022/07/17 01:05:37;;;;;;;15.27;5.82;;;;;;;13.10;100.00;102335.59;5030021;28;20037;-78
2022/07/17 01:08:03;;;;;;;15.27;5.57;;;;;;;13.05;100.00;102319.41;5045790;28;20087;-78
2022/07/17 01:10:28;;;;;;;18.27;5.53;;;;;;;13.06;100.00;102333.06;5036658;28;20045;-78
2022/07/17 01:12:54;;;;;;;16.35;5.47;;;;;;;13.16;100.00;102329.72;5047969;28;20041;-77
2022/07/17 01:15:19;;;;;;;15.45;4.97;;;;;;;13.07;100.00;102328.47;5031515;28;20049;-79
2022/07/17 01:17:45;;;;;;;17.85;5.10;;;;;;;13.05;100.00;102319.41;5025869;28;20038;-79
2022/07/17 01:20:11;;;;;;;17.17;5.43;;;;;;;13.10;100.00;102330.09;5055684;28;20036;-79
2022/07/17 01:22:51;;;;;;;12.65;4.80;;;;;;;13.00;100.00;102322.47;5045530;28;20503;-78
2022/07/17 01:25:20;;;;;;;16.95;4.38;;;;;;;13.17;100.00;102325.97;5034734;28;20053;-78
2022/07/17 01:27:46;;;;;;;13.82;4.50;;;;;;;13.03;100.00;102311.25;5036572;28;20036;-78
2022/07/17 01:30:12;;;;;;;17.08;4.30;;;;;;;13.18;100.00;102317.63;5019825;28;20026;-78
2022/07/17 01:32:40;;;;;;;12.68;5.72;;;;;;;13.04;100.00;102314.91;5037854;28;20061;-78
2022/07/17 01:35:07;;;;;;;15.27;4.65;;;;;;;12.91;100.00;102323.06;5048337;28;20064;-78
2022/07/17 01:37:33;;;;;;;11.88;5.10;;;;;;;12.83;100.00;102323.56;5035214;28;20022;-78
2022/07/17 01:39:59;;;;;;;12.13;5.22;;;;;;;12.72;100.00;102317.88;5020819;28;20040;-77
2022/07/17 01:42:27;;;;;;;11.25;4.25;;;;;;;12.82;100.00;102309.91;5044711;28;20042;-77
2022/07/17 01:44:55;;;;;;;21.25;4.57;;;;;;;12.78;100.00;102311.13;5035196;28;20509;-77
2022/07/17 01:47:21;;;;;;;8.25;3.85;;;;;;;12.63;100.00;102322.13;5015334;28;20041;-77
2022/07/17 01:49:56;;;;;;;13.18;4.95;;;;;;;12.81;100.00;102319.16;5044273;28;20107;-77
2022/07/17 01:52:23;;;;;;;9.98;4.47;;;;;;;12.87;100.00;102311.41;5034517;28;20040;-77
2022/07/17 01:54:48;;;;;;;8.63;4.35;;;;;;;12.69;100.00;102324.47;5050546;28;20045;-77
2022/07/17 01:57:14;;;;;;;14.20;4.00;;;;;;;12.64;100.00;102321.16;5035588;28;20040;-77
2022/07/17 01:59:40;;;;;;;10.93;4.20;;;;;;;12.72;100.00;102320.63;5018122;28;20033;-77
2022/07/17 02:02:07;;;;;;;12.68;4.07;;;;;;;12.58;100.00;102316.03;5035719;28;20041;-77
2022/07/17 02:04:34;;;;;;;14.48;4.53;;;;;;;12.57;100.00;102306.03;5036212;28;20041;-78
2022/07/17 02:07:00;;;;;;;12.93;3.55;;;;;;;12.76;100.00;102318.59;5036338;28;20482;-78
2022/07/17 02:09:26;;;;;;;11.43;3.80;;;;;;;12.58;100.00;102321.53;5035021;28;20049;-79
2022/07/17 02:11:52;;;;;;;19.52;4.75;;;;;;;12.59;100.00;102323.31;5035360;28;20120;-78
2022/07/17 02:14:18;;;;;;;9.07;3.35;;;;;;;12.53;100.00;102312.72;5034872;28;20040;-78
2022/07/17 02:16:44;;;;;;;10.32;3.22;;;;;;;12.61;100.00;102323.19;5033309;28;20399;-78
2022/07/17 02:19:09;;;;;;;13.85;3.88;;;;;;;12.55;100.00;102326.34;5039292;28;20033;-78
2022/07/17 02:21:35;;;;;;;10.75;4.00;;;;;;;12.55;100.00;102329.97;5047764;28;20125;-78
2022/07/17 02:24:01;;;;;;;12.50;5.15;;;;;;;12.65;100.00;102330.25;5021361;28;20440;-79
2022/07/17 02:26:26;;;;;;;10.20;4.45;;;;;;;12.65;100.00;102333.88;5018999;28;20061;-79
2022/07/17 02:28:52;;;;;;;9.65;3.78;;;;;;;12.64;100.00;102344.97;5017718;28;20465;-78
2022/07/17 02:31:17;;;;;;;12.77;4.38;;;;;;;12.45;100.00;102334.28;5019424;28;20497;-78
2022/07/17 02:33:43;;;;;;;16.05;4.43;;;;;;;12.67;100.00;102336.53;5049206;28;20044;-78
2022/07/17 02:36:09;;;;;;;11.70;4.07;;;;;;;12.72;100.00;102328.00;5013846;28;20120;-78
2022/07/17 02:38:34;;;;;;;13.07;4.05;;;;;;;12.69;100.00;102327.22;5033133;28;20060;-78
2022/07/17 02:40:59;;;;;;;8.38;3.70;;;;;;;12.66;100.00;102321.94;5035077;28;20037;-78
2022/07/17 02:43:25;;;;;;;13.73;4.13;;;;;;;12.55;100.00;102340.09;5018353;28;20041;-79
2022/07/17 02:45:51;;;;;;;21.30;4.47;;;;;;;12.61;100.00;102336.94;5020189;28;20053;-79
2022/07/17 02:48:16;;;;;;;18.58;4.82;;;;;;;12.50;100.00;102327.50;5004580;28;20048;-78
2022/07/17 02:50:42;;;;;;;9.73;3.83;;;;;;;12.64;100.00;102328.47;5003616;28;20034;-78
2022/07/17 02:53:08;;;;;;;10.65;4.25;;;;;;;12.57;100.00;102335.38;5002887;28;20048;-79
2022/07/17 02:55:33;;;;;;;7.13;4.05;;;;;;;12.33;100.00;102333.22;5009494;28;20037;-78
2022/07/17 02:57:59;;;;;;;14.93;4.03;;;;;;;12.34;100.00;102320.34;5040974;28;20116;-79
2022/07/17 03:00:26;;;;;;;9.00;3.70;;;;;;;12.41;100.00;102330.88;5042649;28;20410;-78
2022/07/17 03:02:52;;;;;;;13.60;3.88;;;;;;;12.44;100.00;102333.38;5042984;28;20489;-78
2022/07/17 03:05:18;;;;;;;8.05;3.40;;;;;;;12.38;100.00;102333.81;5035713;28;20094;-78
2022/07/17 03:07:45;;;;;;;9.88;3.80;;;;;;;12.25;100.00;102333.69;5034004;28;20549;-78
2022/07/17 03:10:10;;;;;;;13.75;3.78;;;;;;;12.39;100.00;102340.16;5034535;28;20101;-78
2022/07/17 03:12:37;;;;;;;9.82;3.83;;;;;;;12.02;100.00;102328.72;5034946;28;20068;-78
2022/07/17 03:15:04;;;;;;;9.65;3.97;;;;;;;12.05;100.00;102332.19;5036505;28;20030;-79
2022/07/17 03:17:29;;;;;;;12.80;4.10;;;;;;;12.08;100.00;102323.72;5066442;28;20092;-78
2022/07/17 03:19:55;;;;;;;10.18;3.75;;;;;;;11.90;100.00;102327.56;5040859;28;20112;-79
2022/07/17 03:22:20;;;;;;;11.10;4.10;;;;;;;11.75;100.00;102330.28;5004586;28;20033;-79
2022/07/17 03:24:46;;;;;;;11.95;3.55;;;;;;;11.77;100.00;102328.34;5011665;28;20053;-77
2022/07/17 03:27:11;;;;;;;3.92;3.33;;;;;;;11.73;100.00;102331.34;5036301;28;20051;-78
2022/07/17 03:29:37;;;;;;;9.95;3.58;;;;;;;11.71;100.00;102333.31;5033674;28;20044;-78
2022/07/17 03:32:03;;;;;;;12.25;4.72;;;;;;;11.64;100.00;102326.41;4985362;28;20503;-79
2022/07/17 03:34:28;;;;;;;8.90;3.85;;;;;;;11.67;100.00;102332.59;5047789;28;20041;-78
2022/07/17 03:36:53;;;;;;;5.82;3.03;;;;;;;11.87;100.00;102333.25;5025310;28;20045;-79
2022/07/17 03:39:19;;;;;;;8.77;3.13;;;;;;;11.86;100.00;102342.47;5016867;28;20084;-79
2022/07/17 03:41:44;;;;;;;8.68;3.55;;;;;;;11.87;100.00;102336.91;5022511;28;20068;-79
2022/07/17 03:44:10;;;;;;;9.60;3.30;;;;;;;11.87;100.00;102336.91;5019068;28;20040;-78
2022/07/17 03:46:35;;;;;;;9.13;3.50;;;;;;;11.94;100.00;102337.44;5038038;28;20041;-78
2022/07/17 03:49:01;;;;;;;6.25;3.08;;;;;;;11.93;100.00;102347.50;5043326;28;20034;-78
2022/07/17 03:51:27;;;;;;;8.43;2.97;;;;;;;11.88;100.00;102341.41;5017356;28;20037;-78
2022/07/17 03:53:53;;;;;;;9.93;3.10;;;;;;;11.93;100.00;102344.78;5026941;28;20461;-77
2022/07/17 03:56:18;;;;;;;9.52;2.92;;;;;;;11.95;100.00;102337.34;5047966;28;20033;-78
2022/07/17 03:58:44;;;;;;;5.07;2.60;;;;;;;11.88;100.00;102333.16;5030972;28;20029;-78
2022/07/17 04:01:10;;;;;;;6.57;3.05;;;;;;;11.88;100.00;102333.16;5023582;28;20029;-78
2022/07/17 04:03:35;;;;;;;11.40;3.15;;;;;;;11.91;100.00;102330.25;5044680;28;20053;-78
2022/07/17 04:06:01;;;;;;;13.13;4.00;;;;;;;11.83;100.00;102313.34;5046138;28;20087;-78
2022/07/17 04:08:27;;;;;;;12.23;3.80;;;;;;;11.89;100.00;102329.44;5022222;28;20030;-78
2022/07/17 04:10:52;;;;;;;6.10;2.92;;;;;;;11.82;100.00;102318.94;5051686;28;20041;-78
2022/07/17 04:13:18;;;;;;;6.97;3.33;;;;;;;12.00;100.00;102331.56;5019953;28;20045;-78
2022/07/17 04:15:50;;;;;;;4.80;2.75;;;;;;;11.94;100.00;102329.22;5039090;28;20484;-78
2022/07/17 04:18:16;;;;;;;8.02;3.20;;;;;;;11.83;100.00;102337.19;5056822;28;20029;-79
2022/07/17 04:20:41;;;;;;;3.97;2.65;;;;;;;11.94;100.00;102343.81;5023885;28;20037;-78
2022/07/17 04:23:07;;;;;;;12.65;3.03;;;;;;;11.90;100.00;102342.22;5039581;28;20105;-79
2022/07/17 04:25:32;;;;;;;7.35;3.30;;;;;;;12.03;100.00;102344.22;5034142;28;20037;-79
2022/07/17 04:27:58;;;;;;;10.20;3.63;;;;;;;12.16;100.00;102355.34;5006623;28;20393;-78
2022/07/17 04:30:24;;;;;;;4.70;3.13;;;;;;;12.08;100.00;102359.41;5041455;28;20112;-78
2022/07/17 04:32:50;;;;;;;7.95;3.65;;;;;;;12.17;100.00;102355.25;5053055;28;20387;-78
2022/07/17 04:35:16;;;;;;;6.82;3.08;;;;;;;12.32;100.00;102364.38;5045643;28;20032;-78
2022/07/17 04:37:41;;;;;;;7.50;3.10;;;;;;;12.27;100.00;102358.31;5023956;28;20050;-79
2022/07/17 04:40:08;;;;;;;7.80;3.70;;;;;;;12.31;100.00;102349.78;5036178;28;20128;-79
2022/07/17 04:42:34;;;;;;;8.18;3.75;;;;;;;12.42;100.00;102362.81;5038158;28;20025;-79
2022/07/17 04:44:59;;;;;;;6.78;3.15;;;;;;;12.52;100.00;102354.88;5021831;28;20381;-78
2022/07/17 04:47:25;;;;;;;10.43;3.97;;;;;;;12.64;100.00;102353.22;5027130;28;20077;-75
2022/07/17 04:49:50;;;;;;;8.30;3.55;;;;;;;12.66;100.00;102354.03;5002735;28;20091;-76
2022/07/17 04:52:16;;;;;;;10.25;3.53;;;;;;;12.53;100.00;102359.41;5035998;28;20095;-76
2022/07/17 04:54:42;;;;;;;9.75;3.85;;;;;;;12.65;100.00;102361.38;5040798;28;20080;-76
2022/07/17 04:57:07;;;;;;;11.35;3.60;;;;;;;12.66;100.00;102365.91;5026740;28;20118;-77
2022/07/17 04:59:33;;;;;;;13.02;4.25;;;;;;;12.64;100.00;102365.13;5050261;28;20093;-78
2022/07/17 05:01:58;;;;;;;12.32;4.07;;;;;;;12.68;100.00;102363.91;5048040;28;20037;-77
2022/07/17 05:04:24;;;;;;;9.57;4.22;;;;;;;12.71;100.00;102362.84;5031174;28;20025;-78
2022/07/17 05:06:50;;;;;;;11.40;3.67;;;;;;;12.85;100.00;102375.69;5040535;28;20044;-77
2022/07/17 05:09:15;;;;;;;8.07;4.15;;;;;;;12.80;100.00;102378.75;5034237;28;20041;-77
2022/07/17 05:11:40;;;;;;;12.45;4.38;;;;;;;12.84;100.00;102372.06;5050271;28;20441;-77
2022/07/17 05:14:06;;;;;;;11.75;4.30;;;;;;;12.95;100.00;102376.88;5041083;28;20037;-77
2022/07/17 05:16:31;;;;;;;9.00;4.85;;;;;;;13.02;100.00;102375.50;5050249;28;20024;-79
2022/07/17 05:18:57;;;;;;;9.93;4.40;;;;;;;13.08;100.00;102385.19;5041396;28;20068;-76
2022/07/17 05:21:22;;;;;;;12.85;4.47;;;;;;;13.01;100.00;102386.59;5022641;28;20383;-79
2022/07/17 05:23:48;;;;;;;8.30;4.22;;;;;;;13.13;100.00;102391.28;5043792;28;20056;-77
2022/07/17 05:26:14;;;;;;;14.82;5.40;;;;;;;13.14;100.00;102381.19;5044199;28;20469;-77
2022/07/17 05:28:39;;;;;;;10.73;4.30;;;;;;;13.31;100.00;102385.56;5033196;28;20043;-77
2022/07/17 05:31:05;;;;;;;10.88;5.22;;;;;;;13.38;100.00;102374.09;5051383;28;20041;-76
2022/07/17 05:33:30;;;;;;;13.75;5.15;;;;;;;13.40;100.00;102377.63;5032915;28;20057;-77
2022/07/17 05:35:56;;;;;;;9.70;5.28;;;;;;;13.65;100.00;102380.59;5035228;28;20037;-77
2022/07/17 05:38:21;;;;;;;10.65;5.30;;;;;;;13.88;100.00;102371.63;5026958;28;20041;-77
2022/07/17 05:40:47;;;;;;;12.75;5.72;;;;;;;14.11;100.00;102375.53;5029096;28;20115;-77
2022/07/17 05:43:12;;;;;;;17.83;4.97;;;;;;;14.46;100.00;102382.31;5037649;28;20036;-78
2022/07/17 05:45:38;;;;;;;13.10;6.18;;;;;;;14.66;100.00;102383.69;5055977;28;20036;-77
2022/07/17 05:48:06;;;;;;;12.00;5.38;;;;;;;14.68;100.00;102370.69;5048570;28;20038;-77
2022/07/17 05:50:32;;;;;;;14.32;5.38;;;;;;;15.10;100.00;102371.25;5033603;28;20060;-77
2022/07/17 05:52:57;;;;;;;7.50;4.70;;;;;;;15.23;100.00;102369.38;5035126;28;20485;-77
2022/07/17 05:55:23;;;;;;;14.00;4.63;;;;;;;15.61;100.00;102364.72;5017085;28;20063;-77
2022/07/17 05:57:49;;;;;;;9.00;4.55;;;;;;;15.74;100.00;102360.03;5034129;28;20033;-77
2022/07/17 06:00:14;;;;;;;12.23;4.40;;;;;;;16.08;100.00;102357.41;5024614;28;20411;-77
2022/07/17 06:02:40;;;;;;;14.18;4.95;;;;;;;16.67;100.00;102367.47;5031140;28;20500;-77
2022/07/17 06:05:06;;;;;;;15.85;4.55;;;;;;;16.42;100.00;102364.94;5033407;28;20033;-76
2022/07/17 06:07:32;;;;;;;12.68;3.78;;;;;;;16.70;100.00;102367.22;5032111;28;20115;-77
2022/07/17 06:09:58;;;;;;;22.38;4.10;;;;;;;16.89;100.00;102365.78;5032346;28;20061;-77
2022/07/17 06:12:24;;;;;;;12.63;3.95;;;;;;;16.75;100.00;102368.75;5045526;28;20051;-77
2022/07/17 06:14:50;;;;;;;14.30;4.32;;;;;;;17.08;100.00;102363.22;5050211;28;20114;-77
2022/07/17 06:17:16;;;;;;;8.85;3.75;;;;;;;17.08;100.00;102354.91;5025087;28;20041;-77
2022/07/17 06:19:41;;;;;;;14.50;4.65;;;;;;;17.01;100.00;102353.66;5016039;28;20041;-77
2022/07/17 06:22:07;;;;;;;11.55;4.85;;;;;;;17.99;100.00;102357.50;5046475;28;20107;-77
2022/07/17 06:24:32;;;;;;;7.80;3.90;;;;;;;18.02;100.00;102356.31;5029629;28;20492;-77
2022/07/17 06:26:58;;;;;;;15.77;4.15;;;;;;;17.72;100.00;102360.69;5038911;28;20412;-77
2022/07/17 06:29:24;;;;;;;9.20;4.30;;;;;;;18.15;100.00;102357.91;5040050;28;20103;-77
2022/07/17 06:31:49;;;;;;;10.10;4.80;;;;;;;18.12;100.00;102362.84;5018823;28;20038;-77
2022/07/17 06:34:14;;;;;;;12.63;4.18;;;;;;;17.81;100.00;102359.91;5041890;28;20289;-77
2022/07/17 06:36:40;;;;;;;16.48;4.80;;;;;;;18.95;97.22;102360.16;5029646;28;20029;-78
2022/07/17 06:39:05;;;;;;;11.00;4.40;;;;;;;18.28;99.15;102362.34;5023337;28;20049;-77
2022/07/17 06:41:31;;;;;;;12.25;4.40;;;;;;;18.73;98.40;102371.25;5031981;28;20037;-78
2022/07/17 06:43:57;;;;;;;11.02;4.07;;;;;;;19.04;96.62;102362.97;5030006;28;20127;-79
2022/07/17 06:46:22;;;;;;;12.98;4.15;;;;;;;19.15;95.85;102367.56;5013229;28;20052;-78
2022/07/17 06:48:51;;;;;;;14.10;3.70;;;;;;;19.27;92.17;102369.19;5027961;28;20042;-78
2022/07/17 06:51:17;;;;;;;11.00;3.65;;;;;;;19.71;92.64;102356.84;5012877;28;20477;-79
2022/07/17 06:53:43;;;;;;;13.45;3.80;;;;;;;19.65;91.37;102370.28;5041049;28;20029;-78
2022/07/17 06:56:08;;;;;;;12.00;3.83;;;;;;;20.04;89.56;102379.69;5047472;28;20056;-77
2022/07/17 06:58:34;;;;;;;13.48;4.75;;;;;;;19.96;89.61;102381.31;5024170;28;20481;-78
2022/07/17 07:01:00;;;;;;;11.10;4.13;;;;;;;21.00;82.65;102380.56;5036512;28;20025;-77
2022/07/17 07:03:25;;;;;;;14.20;4.65;;;;;;;20.77;83.28;102368.94;5035309;28;20052;-78
2022/07/17 07:05:51;;;;;;;14.13;5.18;;;;;;;20.66;83.62;102381.16;5020692;28;20520;-78
2022/07/17 07:08:17;;;;;;;15.52;4.70;;;;;;;20.44;83.47;102401.78;5046260;28;20087;-79
2022/07/17 07:10:44;;;;;;;12.82;5.15;;;;;;;20.68;82.38;102403.25;5047370;28;20107;-78
2022/07/17 07:13:09;;;;;;;14.80;4.65;;;;;;;20.47;84.43;102400.63;5043157;28;20095;-78
2022/07/17 07:15:35;;;;;;;22.35;4.93;;;;;;;19.91;87.05;102408.69;5046512;28;20038;-77
2022/07/17 07:18:04;;;;;;;14.13;4.93;;;;;;;20.44;83.75;102403.72;5021526;28;20390;-77
2022/07/17 07:20:54;;;;;;;11.80;3.92;;;;;;;20.65;85.15;102410.00;5027376;28;20468;-77
2022/07/17 07:23:19;;;;;;;10.00;3.67;;;;;;;22.12;76.71;102396.19;5037245;28;20048;-78
2022/07/17 07:25:46;;;;;;;14.25;4.20;;;;;;;22.13;76.51;102400.72;5040342;28;20411;-78
2022/07/17 07:28:12;;;;;;;14.48;3.75;;;;;;;21.60;78.37;102404.38;5037341;28;20068;-78
2022/07/17 07:30:37;;;;;;;11.65;3.40;;;;;;;21.97;72.63;102408.94;5025880;28;20572;-78
2022/07/17 07:33:03;;;;;;;11.65;3.40;;;;;;;21.56;74.73;102419.63;5020537;28;20076;-77
2022/07/17 07:35:28;;;;;;;13.13;3.78;;;;;;;21.03;77.37;102415.59;5050498;28;20400;-78
2022/07/17 07:37:54;;;;;;;10.30;3.90;;;;;;;22.01;75.10;102419.63;5040610;28;20032;-77
2022/07/17 07:40:20;;;;;;;11.65;3.58;;;;;;;22.05;76.61;102417.38;5047937;28;20067;-79
2022/07/17 07:42:45;;;;;;;12.95;3.53;;;;;;;22.36;76.67;102420.66;5039770;28;20040;-78
2022/07/17 07:45:11;;;;;;;22.30;4.05;;;;;;;22.21;75.25;102405.50;5024108;28;20083;-77
2022/07/17 07:47:42;;;;;;;10.45;3.78;;;;;;;22.46;73.53;102405.75;5022726;28;20029;-77
2022/07/17 07:50:08;;;;;;;15.15;3.22;;;;;;;22.48;74.19;102412.03;5044703;28;20028;-77
2022/07/17 07:52:34;;;;;;;16.08;3.50;;;;;;;22.55;72.53;102405.66;5028311;28;20025;-78
2022/07/17 07:54:59;;;;;;;9.88;3.10;;;;;;;24.15;65.56;102411.66;5013519;28;20042;-77
2022/07/17 07:57:25;;;;;;;10.85;3.45;;;;;;;23.10;68.33;102410.09;5003789;28;20064;-78
2022/07/17 07:59:50;;;;;;;18.05;3.20;;;;;;;23.23;68.72;102409.59;5016309;28;20037;-78
2022/07/17 08:02:16;;;;;;;11.30;3.72;;;;;;;23.29;67.69;102410.88;5028670;28;20041;-77
2022/07/17 08:04:41;;;;;;;16.92;2.72;;;;;;;22.83;70.79;102407.44;5027956;28;20029;-80
2022/07/17 08:07:07;;;;;;;11.15;3.17;;;;;;;22.75;69.83;102413.84;5035172;28;20050;-79
2022/07/17 08:09:32;;;;;;;9.57;2.17;;;;;;;23.08;67.07;102419.66;5043245;28;20095;-78
2022/07/17 08:11:58;;;;;;;9.75;2.63;;;;;;;23.72;63.29;102411.72;5024177;28;20037;-79
2022/07/17 08:14:24;;;;;;;8.73;2.35;;;;;;;22.54;65.45;102406.69;5049576;28;20113;-79
2022/07/17 08:16:50;;;;;;;13.80;2.20;;;;;;;23.05;64.13;102408.78;5032361;28;20029;-78
2022/07/17 08:19:15;;;;;;;9.48;1.83;;;;;;;22.48;65.63;102412.94;5031326;28;20033;-77
2022/07/17 08:21:44;;;;;;;16.33;1.85;;;;;;;23.24;63.40;102405.78;5025667;28;20045;-81
2022/07/17 08:24:09;;;;;;;15.77;2.25;;;;;;;23.43;63.06;102413.03;5039781;28;20033;-78
2022/07/17 08:26:35;;;;;;;11.07;2.00;;;;;;;23.43;62.07;102401.84;5022080;28;20037;-80
2022/07/17 08:29:00;;;;;;;8.52;2.22;;;;;;;22.57;64.69;102409.16;5017550;28;20042;-80
2022/07/17 08:31:26;;;;;;;10.55;2.10;;;;;;;24.04;59.24;102410.09;5020917;28;20037;-80
2022/07/17 08:33:52;;;;;;;6.38;1.70;;;;;;;24.04;60.14;102407.28;5038498;28;20044;-77
2022/07/17 08:36:17;;;;;;;13.50;1.95;;;;;;;23.96;58.43;102412.88;5044107;28;20459;-78
2022/07/17 08:38:43;;;;;;;8.52;2.00;;;;;;;23.76;61.23;102421.53;5033391;28;20056;-78
2022/07/17 08:41:10;;;;;;;8.63;2.13;;;;;;;23.28;60.73;102411.91;5050157;28;20040;-78
2022/07/17 08:43:36;;;;;;;5.22;1.70;;;;;;;23.95;60.67;102411.09;5049152;28;20091;-77
2022/07/17 08:46:02;;;;;;;10.65;2.00;;;;;;;23.66;60.37;102415.19;5030670;28;20033;-78
2022/07/17 08:48:31;;;;;;;7.97;1.50;;;;;;;23.60;59.11;102410.28;5028394;28;20072;-78
2022/07/17 08:50:59;;;;;;;12.77;1.60;;;;;;;23.86;59.74;102410.22;5041823;28;20038;-78
2022/07/17 08:53:24;;;;;;;8.65;1.85;;;;;;;24.05;57.78;102420.22;5042623;28;20040;-77
2022/07/17 08:55:50;;;;;;;6.72;1.60;;;;;;;23.80;58.09;102416.47;5052432;28;20045;-78
2022/07/17 08:58:17;;;;;;;5.22;1.45;;;;;;;23.11;60.78;102416.53;5038867;28;20075;-78
2022/07/17 09:00:44;;;;;;;6.07;1.75;;;;;;;24.27;58.94;102409.38;5032549;28;20037;-78
2022/07/17 09:03:10;;;;;;;10.80;1.92;;;;;;;24.24;58.45;102413.44;5022420;28;20061;-78
2022/07/17 09:05:38;;;;;;;4.43;1.70;;;;;;;24.12;59.18;102406.41;5050485;28;20044;-78
2022/07/17 09:08:06;;;;;;;7.93;2.15;;;;;;;24.69;58.05;102409.22;5046763;28;20033;-78
2022/07/17 09:10:41;;;;;;;5.60;1.75;;;;;;;24.29;55.50;102410.09;5041717;28;20473;-78
2022/07/17 09:13:17;;;;;;;7.53;1.95;;;;;;;24.11;54.31;102401.88;5044630;28;20048;-78
2022/07/17 09:15:44;;;;;;;8.27;1.77;;;;;;;24.73;54.89;102401.38;5049593;28;20067;-79
2022/07/17 09:18:10;;;;;;;7.43;2.08;;;;;;;25.00;55.10;102402.84;5041746;28;20036;-80
2022/07/17 09:20:58;;;;;;;5.20;1.83;;;;;;;25.19;53.42;102409.13;5046705;28;20053;-78
2022/07/17 09:23:25;;;;;;;11.93;2.10;;;;;;;23.99;57.52;102404.09;5039859;28;20031;-79
2022/07/17 09:25:54;;;;;;;5.55;1.77;;;;;;;25.60;53.54;102406.19;5037895;28;20047;-78
2022/07/17 09:28:21;;;;;;;11.38;2.40;;;;;;;24.68;55.44;102401.88;5038828;28;20033;-78
2022/07/17 09:30:49;;;;;;;9.02;2.25;;;;;;;24.79;54.90;102405.38;5044073;28;20071;-79
2022/07/17 09:33:21;;;;;;;9.40;2.58;;;;;;;24.64;56.39;102416.41;5037013;28;20501;-80
2022/07/17 09:35:51;;;;;;;11.27;2.30;;;;;;;24.99;56.97;102411.44;5035982;28;20639;-79
2022/07/17 09:38:31;;;;;;;5.93;2.20;;;;;;;25.01;53.76;102404.63;5024160;28;20077;-79
2022/07/17 09:41:12;;;;;;;6.45;1.95;;;;;;;24.52;56.89;102394.34;5030331;28;20064;-79
2022/07/17 09:43:52;;;;;;;8.25;2.10;;;;;;;25.41;54.08;102402.75;5022530;28;20399;-80
2022/07/17 09:46:27;;;;;;;6.90;1.65;;;;;;;25.20;56.13;102397.72;5029352;28;20025;-78
2022/07/17 09:49:03;;;;;;;12.70;2.28;;;;;;;25.76;55.46;102403.28;5042519;28;20061;-78
2022/07/17 09:51:30;;;;;;;6.75;1.90;;;;;;;26.70;51.48;102405.94;5036417;28;20060;-78
2022/07/17 09:54:02;;;;;;;8.25;1.92;;;;;;;26.48;50.11;102398.38;5036860;28;20033;-78
2022/07/17 09:56:30;;;;;;;7.27;1.90;;;;;;;25.98;52.74;102404.38;5041480;28;20076;-78
2022/07/17 09:59:05;;;;;;;13.02;2.25;;;;;;;25.60;54.18;102400.56;5056915;28;20021;-78
2022/07/17 10:01:31;;;;;;;8.07;2.17;;;;;;;25.04;54.09;102403.38;5045629;28;20100;-78
2022/07/17 10:03:57;;;;;;;7.07;1.58;;;;;;;24.91;57.06;102396.41;5008360;28;20037;-77
2022/07/17 10:06:24;;;;;;;8.32;1.90;;;;;;;25.60;53.50;102401.44;5040395;28;20033;-78
2022/07/17 10:08:51;;;;;;;6.13;1.95;;;;;;;25.24;54.30;102401.06;5036609;28;20085;-78
2022/07/17 10:11:20;;;;;;;7.95;2.03;;;;;;;25.90;51.63;102392.31;5041281;28;20029;-78
2022/07/17 10:13:46;;;;;;;9.95;2.30;;;;;;;25.80;54.01;102398.16;5046327;28;20112;-78
2022/07/17 10:16:13;;;;;;;8.60;2.40;;;;;;;26.08;50.68;102398.53;5044466;28;20043;-78
2022/07/17 10:18:44;;;;;;;9.90;1.80;;;;;;;26.08;49.61;102398.53;5026730;28;20063;-78
2022/07/17 10:21:17;;;;;;;9.43;2.47;;;;;;;25.86;49.52;102395.50;5044764;28;20025;-79
2022/07/17 10:23:48;;;;;;;12.90;2.20;;;;;;;25.96;49.49;102397.22;5037029;28;20087;-78
2022/07/17 10:26:14;;;;;;;5.00;1.77;;;;;;;26.47;48.60;102389.09;5024694;28;20060;-79
2022/07/17 10:28:44;;;;;;;10.95;1.90;;;;;;;26.23;50.66;102396.63;5053219;28;20491;-79
2022/07/17 10:31:22;;;;;;;10.05;1.63;;;;;;;26.26;48.35;102389.78;5046810;28;20139;-79
2022/07/17 10:33:58;;;;;;;5.90;1.75;;;;;;;27.22;47.42;102395.69;5042383;28;20025;-79
2022/07/17 10:36:43;;;;;;;6.63;1.40;;;;;;;26.71;46.94;102395.56;5045353;28;20043;-79
2022/07/17 10:39:20;;;;;;;5.13;1.70;;;;;;;26.36;48.76;102396.00;5043964;28;20049;-79
2022/07/17 10:42:00;;;;;;;4.32;1.67;;;;;;;26.19;49.12;102403.72;5055117;28;20078;-79
2022/07/17 10:44:29;;;;;;;6.93;1.20;;;;;;;26.01;48.21;102404.03;5042591;28;20091;-79
2022/07/17 10:46:56;;;;;;;5.85;1.40;;;;;;;25.92;47.89;102395.81;5036683;28;20048;-79
2022/07/17 10:49:23;;;;;;;2.83;1.05;;;;;;;25.92;45.35;102399.47;5047998;28;20396;-79
2022/07/17 10:51:52;;;;;;;3.80;1.40;;;;;;;25.70;42.03;102404.00;5038443;28;20709;-78
2022/07/17 10:54:19;;;;;;;6.20;1.25;;;;;;;25.73;41.69;102406.44;5035109;28;20033;-78
2022/07/17 10:56:45;;;;;;;7.10;1.40;;;;;;;25.77;43.20;102407.81;5039728;28;20400;-78
2022/07/17 10:59:11;;;;;;;4.28;1.65;;;;;;;26.22;43.00;102397.72;5034432;28;20088;-78
2022/07/17 11:01:37;;;;;;;5.22;1.52;;;;;;;26.12;45.55;102405.53;5019965;28;20043;-78
2022/07/17 11:04:06;;;;;;;10.02;1.70;;;;;;;26.57;45.93;102392.50;5025301;28;20052;-77
2022/07/17 11:06:35;;;;;;;4.63;1.45;;;;;;;25.98;46.29;102404.38;5034372;28;20036;-78
2022/07/17 11:09:05;;;;;;;5.30;1.42;;;;;;;25.69;44.17;102402.25;5043911;28;20460;-78
2022/07/17 11:11:37;;;;;;;34.90;2.42;;;;;;;25.91;45.24;102403.38;5041053;28;20104;-78
2022/07/17 11:14:13;;;;;;;6.97;1.17;;;;;;;27.25;38.01;102395.31;5048190;28;20099;-78
2022/07/17 11:16:44;;;;;;;159.98;6.43;;;;;;;26.26;40.63;102386.13;5038802;28;20108;-78